Water and Atmospheric Resources Monitoring Program - , Illinois State Water Survey

Water and Atmospheric Resources Monitoring Program (WARM)

Weather Soil Groundwater Sediment Streamflow Reservoirs

#123 Mazon (USGS #5542000)


Instantaneous Suspended Sediment Measurements

Date Time    Gage Ht. Temp Cs Qw Qs Final F
i
n
a
l
     (feet) (C) (mg/l) (cfs) (t/d)  
10/13/1980 10:30    1.96 12 33.00 68.4 6.1 True x
10/27/1980 10:00    2.33 115.00 159.8 49.6 True x
11/24/1980 14:10    2.09 10.00 97.6 2.6 True x
12/15/1980 16:00    3.28 92.00 526.5 130.8 True x
1/26/1981 10:40    2.41 16.00 182 7.9 True x
2/19/1981 12:00    4.33 137.00 1147 424.3 True x
3/3/1981 11:30    2.96 126.00 382.4 130.1 True x
3/10/1981 13:00    2.52 66.00 215.5 38.4 True x
3/17/1981 13:55    2.22 52.00 131.6 18.5 True x
3/24/1981 13:40    2.05 57.00 88.1 13.6 True x
4/2/1981 18:30    2.01 15 53.00 78.7 11.3 True x
4/3/1981 06:45    2.03 12 50.00 83.4 11.3 True x
4/4/1981 07:00    2.11 14 90.00 102.7 25.0 True x
4/5/1981 06:30    2.21 60.00 129.1 20.9 True x
4/5/1981 18:00    2.04 93.00 85.8 21.5 True x
4/6/1981 06:45    2.04 49.00 85.8 11.4 True x
4/7/1981 06:45    1.99 83.00 74.3 16.7 True x
4/8/1981 06:30    1.99 12 99.00 74.3 19.9 True x
4/9/1981 06:45    2.06 11 101.00 90.5 24.7 True x
4/9/1981 18:15    2.10 15 100.00 100 27.0 True x
4/10/1981 06:45    2.11 12 96.00 102.7 26.6 True x
4/10/1981 18:30    2.19 14 93.00 123.9 31.1 True x
4/11/1981 06:15    2.34 13 98.00 162.5 43.0 True x
4/11/1981 18:15    3.03 15 173.00 412.9 192.9 True x
4/12/1981 06:50    3.07 12 290.00 430.1 336.8 True x
4/12/1981 18:15    3.95 13 403.00 902.8 982.3 True x
4/13/1981 06:30    4.52 11 975.00 1264 3,327.5 True x
4/13/1981 18:15    5.82 12 855.00 2152 4,967.9 True x
4/14/1981 06:00    7.66 11 1,774.00 3659 17,525.9 True x
4/14/1981 18:05    10.27 13 3,493.00 6143 57,935.2 True x
4/15/1981 06:50    9.46 599.00 5340 8,636.4 True x
4/16/1981 06:50    5.83 10 277.00 2159 1,614.7 True x
4/17/1981 06:45    5.03 12 224.00 1601 968.3 True x
4/18/1981 06:50    4.31 12 217.00 1135 665.0 True x
4/19/1981 06:30    3.82 11 207.00 821.4 459.1 True x
4/20/1981 06:30    3.56 157.00 671 284.4 True x
4/21/1981 06:30    3.31 186.00 541 271.7 True x
4/22/1981 06:50    3.12 11 159.00 452.1 194.1 True x
4/23/1981 06:50    4.23 11 271.00 1088 796.1 True x
4/23/1981 18:15    5.10 11 1,114.00 1650 4,962.9 True x
4/24/1981 06:50    4.50 297.00 1251 1,003.2 True x
4/24/1981 11:00    4.37 10 272.00 1172 860.7 True x
4/25/1981 07:30    3.70 10 282.00 749.7 570.8 True x
4/26/1981 06:40    3.42 12 169.00 596.4 272.1 True x
4/27/1981 07:00    3.41 12 159.00 591.1 253.8 True x
4/28/1981 06:50    3.26 15 187.00 516.9 261.0 True x
4/29/1981 07:00    7.17 12 1,262.00 3228 10,999.1 True x
4/29/1981 18:20    6.79 13 988.00 908 2,422.2 True x
4/30/1981 06:50    5.24 11 279.00 1744 1,313.8 True x
5/1/1981 06:45    5.67 11 218.00 2043 1,202.5 True x
5/1/1981 18:55    5.09 13 274.00 1643 1,215.5 True x
5/2/1981 06:50    4.58 11 227.00 1302 798.0 True x
5/3/1981 06:40    3.97 12 182.00 915.6 449.9 True x
5/4/1981 06:50    3.57 13 177.00 676.4 323.3 True x
5/5/1981 06:40    3.24 15 176.00 507.4 241.1 True x
5/6/1981 06:50    3.02 11 164.00 408.6 180.9 True x
5/7/1981 06:40    2.83 10 150.00 327.3 132.6 True x
5/8/1981 06:50    2.69 11 150.00 273.5 110.8 True x
5/9/1981 06:55    2.45 12 108.00 194 56.6 True x
5/10/1981 06:30    2.67 10 128.00 266.4 92.1 True x
5/10/1981 18:20    3.03 146.00 412.9 162.8 True x
5/11/1981 07:00    6.37 495.00 2570 3,434.8 True x
5/11/1981 18:00    7.48 10 378.00 3498 3,570.1 True x
5/12/1981 06:55    6.83 227.00 2941 1,802.5 True x
5/13/1981 07:05    5.28 10 227.00 1771 1,085.4 True x
5/14/1981 06:45    5.27 299.00 1764 1,424.1 True x
5/14/1981 18:20    7.18 11 385.00 3236 3,363.8 True x
5/15/1981 06:40    11.79 733.00 7775 15,387.5 True x
5/15/1981 18:50    11.33 12 295.00 7261 5,783.4 True x
5/16/1981 06:45    7.58 12 190.00 3587 1,840.1 True x
5/16/1981 18:05    6.45 15 186.00 2633 1,322.3 True x
5/17/1981 06:50    5.68 10 107.00 2051 592.5 True x
5/17/1981 18:00    5.25 13 141.00 1751 666.6 True x
5/18/1981 07:30    4.87 10 108.00 1492 435.1 True x
5/18/1981 18:30    4.49 11 127.00 1245 426.9 True x
5/19/1981 06:45    4.20 10 98.00 1070 283.1 True x
5/19/1981 18:10    3.98 13 104.00 922 258.9 True x
5/20/1981 06:30    3.89 10 117.00 864.5 273.1 True x
5/20/1981 18:00    3.63 15 126.00 709.9 241.5 True x
5/21/1981 06:45    3.48 12 114.00 627.7 193.2 True x
5/21/1981 18:10    3.32 18 143.00 546 210.8 True x
5/22/1981 06:40    3.24 14 132.00 507.4 180.8 True x
5/22/1981 18:05    3.14 17 136.00 461.1 169.3 True x
5/23/1981 06:50    3.08 15 135.00 434.4 158.3 True x
5/23/1981 18:45    3.02 17 123.00 408.6 135.7 True x
5/24/1981 06:45    2.98 16 123.00 391.2 129.9 True x
5/24/1981 18:35    2.92 20 133.00 364.9 131.0 True x
5/25/1981 07:20    2.82 17 114.00 323.2 99.5 True x
5/25/1981 18:30    2.77 20 86.00 303.6 70.5 True x
5/26/1981 07:20    2.72 17 105.00 284.6 80.7 True x
5/26/1981 18:30    2.67 20 94.00 266.4 67.6 True x
5/27/1981 07:30    2.64 18 83.00 255.8 57.3 True x
5/27/1981 18:30    2.61 21 77.00 245.2 51.0 True x
5/28/1981 06:30    2.59 18 86.00 238.4 55.4 True x
5/28/1981 18:00    2.57 21 59.00 231.9 36.9 True x
5/29/1981 06:50    2.54 18 82.00 222.1 49.2 True x
5/29/1981 18:20    2.52 22 85.00 215.5 49.5 True x
5/30/1981 06:50    3.27 16 300.00 521.7 422.6 True x
5/30/1981 18:05    3.53 18 224.00 654.6 395.9 True x
5/31/1981 07:15    3.12 16 98.00 452.1 119.6 True x
5/31/1981 18:10    2.92 20 116.00 364.9 114.3 True x
6/1/1981 06:45    2.76 18 102.00 299.8 82.6 True x
6/1/1981 18:40    2.72 20 111.00 284.6 85.3 True x
6/2/1981 06:50    2.71 18 128.00 280.8 97.0 True x
6/2/1981 18:20    2.70 21 130.00 277 97.2 True x
6/3/1981 07:10    2.62 20 119.00 248.8 79.9 True x
6/3/1981 18:00    2.57 22 134.00 231.9 83.9 True x
6/4/1981 06:50    2.52 20 156.00 215.5 90.8 True x
6/4/1981 18:00    2.46 23 95.00 197 50.5 True x
6/5/1981 07:15    2.45 21 93.00 194 48.7 True x
6/5/1981 15:30    2.51 23 59.00 212.3 33.8 True x
6/5/1981 18:45    2.53 24 104.00 218.8 61.4 True x
6/6/1981 06:50    2.53 21 138.00 218.8 81.5 True x
6/6/1981 18:20    2.45 24 108.00 194 56.6 True x
6/7/1981 06:55    2.41 20 118.00 182 58.0 True x
6/7/1981 18:00    2.35 25 89.00 165.3 39.7 True x
6/8/1981 07:15    2.33 22 111.00 159.8 47.9 True x
6/8/1981 18:10    2.36 24 98.00 168 44.5 True x
6/9/1981 07:15    2.74 20 272.00 292.2 214.6 True x
6/9/1981 18:10    2.62 20 111.00 248.8 74.6 True x
6/10/1981 06:50    2.54 18 140.00 222.1 84.0 True x
6/10/1981 18:30    2.43 23 123.00 188 62.4 True x
6/11/1981 06:55    2.38 19 120.00 173.5 56.2 True x
6/11/1981 18:40    2.31 21 135.00 154.3 56.2 True x
6/12/1981 07:15    2.28 20 119.00 146.5 47.1 True x
6/12/1981 18:30    2.26 22 139.00 141.5 53.1 True x
6/13/1981 06:50    2.35 21 325.00 165.3 145.1 True x
6/13/1981 18:00    10.96 24 1,684.00 6858 31,182.0 True x
6/14/1981 06:45    13.18 22 1,072.00 9403 27,216.0 True x
6/14/1981 18:00    12.15 24 592.00 185 295.7 True x
6/15/1981 07:10    7.72 22 228.00 3713 2,285.7 True x
6/15/1981 18:05    6.27 23 185.00 2492 1,244.8 True x
6/16/1981 07:00    6.83 21 440.00 2941 3,493.9 True x
6/16/1981 18:40    7.43 19 782.00 3454 7,292.8 True x
6/17/1981 07:05    5.98 18 244.00 2270 1,495.5 True x
6/17/1981 18:20    5.24 20 175.00 1744 824.0 True x
6/18/1981 07:10    4.76 18 188.00 1419 720.3 True x
6/18/1981 18:00    4.43 22 188.00 1208 613.2 True x
6/19/1981 07:10    4.12 19 177.00 1015 485.1 True x
6/19/1981 18:00    3.92 22 140.00 883.5 334.0 True x
6/20/1981 07:20    3.71 18 172.00 755.6 350.9 True x
6/20/1981 18:00    3.58 22 152.00 681.9 279.9 True x
6/21/1981 07:00    3.42 20 150.00 596.4 241.5 True x
6/21/1981 18:10    3.28 22 123.00 526.5 174.9 True x
6/22/1981 07:05    3.18 19 109.00 479.2 141.0 True x
6/22/1981 18:15    4.51 22 823.00 1257 2,793.2 True x
6/23/1981 07:00    3.82 18 508.00 821.4 1,126.6 True x
6/23/1981 18:20    3.42 22 218.00 596.4 351.0 True x
6/24/1981 07:05    3.29 20 191.00 531.2 273.9 True x
6/24/1981 18:20    3.44 24 223.00 606.8 365.4 True x
6/25/1981 07:05    4.18 21 379.00 1056 1,080.6 True x
6/25/1981 18:20    5.04 23 1,406.00 1608 6,104.3 True x
6/26/1981 06:05    4.10 20 354.00 1001 956.8 True x
6/26/1981 18:05    3.67 23 246.00 732.6 486.6 True x
6/27/1981 06:55    3.38 20 192.00 575.9 298.5 True x
6/27/1981 18:10    3.18 23 190.00 479.2 245.8 True x
6/28/1981 07:05    3.05 20 170.00 421.5 193.5 True x
6/28/1981 18:10    2.94 24 178.00 373.7 179.6 True x
6/29/1981 06:40    2.84 21 157.00 331.4 140.5 True x
6/29/1981 18:10    2.74 26 159.00 292.2 125.4 True x
6/30/1981 06:50    2.66 23 151.00 262.9 107.2 True x
6/30/1981 18:20    2.60 25 142.00 241.7 92.7 True x
7/1/1981 07:10    2.54 22 157.00 222.1 94.1 True x
7/1/1981 18:40    2.49 24 152.00 206 84.5 True x
7/2/1981 07:10    2.46 22 133.00 197 70.7 True x
7/2/1981 18:15    2.41 25 134.00 182 65.8 True x
7/3/1981 06:50    2.38 22 125.00 173.5 58.6 True x
7/3/1981 18:50    2.33 26 114.00 159.8 49.2 True x
7/4/1981 07:10    2.30 23 134.00 151.5 54.8 True x
7/4/1981 18:10    2.30 24 99.00 151.5 40.5 True x
7/5/1981 07:10    2.31 22 121.00 154.3 50.4 True x
7/5/1981 18:50    2.31 26 114.00 154.3 47.5 True x
7/6/1981 07:05    2.28 23 73.00 146.5 28.9 True x
7/6/1981 18:50    2.23 27 89.00 134.1 32.2 True x
7/7/1981 07:00    2.19 24 100.00 123.9 33.5 True x
7/7/1981 18:20    2.15 28 115.00 113.3 35.2 True x
7/8/1981 07:15    2.13 26 106.00 108 30.9 True x
7/8/1981 18:40    2.12 29 59.00 105.3 16.8 True x
7/9/1981 07:10    2.10 26 109.00 100 29.4 True x
7/9/1981 18:45    2.09 28 66.00 97.6 17.4 True x
7/10/1981 07:15    2.08 23 82.00 95.3 21.1 True x
7/10/1981 18:45    2.07 29 76.00 92.9 19.1 True x
7/11/1981 07:00    2.04 24 39.00 85.8 9.0 True x
7/11/1981 18:40    2.01 28 55.00 78.7 11.7 True x
7/12/1981 07:05    2.01 24 54.00 78.7 11.5 True x
7/12/1981 18:50    2.00 28 38.00 76.3 7.8 True x
7/13/1981 06:50    2.00 27 26.00 76.3 5.4 True x
7/13/1981 18:30    1.98 30 44.00 72.3 8.6 True x
7/14/1981 06:50    1.98 25 43.00 72.3 8.4 True x
7/14/1981 18:40    1.95 28 31.00 66.4 5.6 True x
7/15/1981 06:40    1.95 23 47.00 66.4 8.4 True x
7/15/1981 18:30    1.95 26 47.00 66.4 8.4 True x
7/16/1981 07:00    1.91 22 60.00 58.5 9.5 True x
7/16/1981 18:20    1.95 24 47.00 66.4 8.4 True x
7/17/1981 06:50    2.00 22 39.00 76.3 8.0 True x
7/17/1981 12:00    2.00 24 36.00 76.3 7.4 True x
7/17/1981 18:30    1.97 26 45.00 70.4 8.6 True x
7/18/1981 07:10    1.93 23 62.00 62.4 10.4 True x
7/18/1981 18:40    1.92 28 65.00 60.5 10.6 True x
7/19/1981 07:30    1.91 25 54.00 58.5 8.5 True x
7/19/1981 18:50    1.90 29 77.00 56.5 11.7 True x
7/20/1981 07:00    1.99 24 76.00 74.3 15.2 True x
7/20/1981 18:30    2.18 28 72.00 121.3 23.6 True x
7/21/1981 07:10    2.54 23 50.00 222.1 30.0 True x
7/21/1981 18:50    2.88 24 87.00 347.9 81.7 True x
7/22/1981 07:05    2.61 21 68.00 245.2 45.0 True x
7/22/1981 18:50    2.37 24 90.00 170.8 41.5 True x
7/23/1981 07:10    2.25 20 68.00 139.1 25.5 True x
7/23/1981 18:15    2.15 24 75.00 113.3 22.9 True x
7/24/1981 07:30    2.07 21 103.00 92.9 25.8 True x
7/24/1981 18:25    2.04 25 110.00 85.8 25.5 True x
7/25/1981 06:40    2.00 22 102.00 76.3 21.0 True x
7/26/1981 07:10    2.05 22 80.00 88.1 19.0 True x
7/26/1981 18:10    2.07 25 78.00 92.9 19.6 True x
7/27/1981 07:10    2.42 20 129.00 185 64.4 True x
7/27/1981 18:40    2.44 20 154.00 191 79.4 True x
7/28/1981 07:15    3.03 19 285.00 412.9 317.7 True x
7/28/1981 18:40    4.96 19 367.00 1553 1,538.9 True x
7/29/1981 07:05    5.27 18 401.00 1764 1,909.9 True x
7/29/1981 18:45    4.42 21 220.00 1202 714.0 True x
7/30/1981 07:05    3.87 18 175.00 852.2 402.7 True x
8/4/1981 14:55    2.22 27 38.00 131.6 13.5 True x
8/10/1981 08:25    2.13 22 132.00 108 38.5 True x
8/18/1981 11:50    3.28 20 142.00 526.5 201.9 True x
8/25/1981 12:30    2.00 24 77.00 76.3 15.9 True x
9/1/1981 11:30    4.78 23 307.00 1432 1,187.0 True x
9/8/1981 11:30    2.26 20 112.00 141.5 42.8 True x
9/15/1981 14:10    1.91 22 83.00 58.5 13.1 True x
9/22/1981 11:55    1.80  82.00 40.5 9.0 True x
10/14/1981 09:20    2.45 13 81.00 194 42.4 True x
10/22/1981 09:30    2.55 119.00 225.4 72.4 True x
10/30/1981 09:40    2.26 11 122.00 141.5 46.6 True x
11/3/1981 11:30    2.29 11 77.00 149 31.0 True x
11/10/1981 10:40    2.16 98.00 116 30.7 True x
12/3/1981 09:40    3.46 120.00 617.3 200.0 True x
3/3/1982 12:40    4.07 99.00 981.1 262.2 True x
3/11/1982 14:30    9.62 875.00 5496 12,984.3 True x
3/18/1982 14:55    5.44 144.00 1880 730.9 True x
3/26/1982 14:50    3.75 123.00 779.4 258.8 True x
4/1/1982 14:15    3.25 11 146.00 512.1 201.9 True x
4/8/1982 16:00    3.39 138.00 580.9 216.4 True x
4/13/1982 14:50    5.04 245.00 1608 1,063.7 True x
4/21/1982 15:10    3.85 10 133.00 839.9 301.6 True x
4/28/1982 09:15    2.64 10 116.00 255.8 80.1 True x
5/4/1982 10:00    2.36 15 80.00 168 36.3 True x
5/13/1982 12:00    2.19 21 69.00 123.9 23.1 True x
5/19/1982 07:50    2.55 19 184.00 225.4 112.0 True x
5/27/1982 14:55    6.26 15 662.00 2483 4,438.1 True x
6/2/1982 15:20    3.47 18 194.00 622.5 326.1 True x
6/17/1982 09:55    2.28 17 117.00 146.5 46.3 True x
6/23/1982 14:30    2.05 21 100.00 88.1 23.8 True x
6/30/1982 16:25    3.77 21 222.00 791.3 474.3 True x
7/9/1982 14:25    3.06 25 192.00 425.8 220.7 True x
7/15/1982 15:20    2.86 26 199.00 339.7 182.5 True x
7/22/1982 15:20    3.08 24 178.00 434.4 208.8 True x
7/27/1982 17:50    2.22 26 112.00 131.6 39.8 True x
8/5/1982 15:00    1.87 25 51.00 54.9 7.6 True x
8/11/1982 13:50    1.98 22 71.00 72.3 13.9 True x
8/19/1982 13:10    1.72 26 62.00 30.3 5.1 True x
8/25/1982 15:50    1.62 25 77.00 20 4.2 True x
9/2/1982 14:50    1.62 25 79.00 20 4.3 True x
9/16/1982 15:45    1.60 22 106.00 18.1 5.2 True x
10/7/1982 12:40    1.56 17 67.00 15.3 2.8 True x
10/15/1982 09:50    1.59 11 77.00 17.4 3.6 True x
10/20/1982 08:00    1.62 73.00 20 3.9 True x
10/29/1982 10:30    1.64 10 95.00 22 5.6 True x
11/2/1982 10:45    1.93 13 40.00 62.4 6.7 True x
12/2/1982 11:30    3.46 13 138.00 617.3 230.0 True x
12/9/1982 12:00    5.24 72.00 1744 339.0 True x
3/17/1983 10:50    2.52 85.00 215.5 49.5 True x
3/25/1983 10:10    3.38 70.00 575.9 108.8 True x
3/28/1983 11:00    4.91 151.00 1519 619.3 True x
4/5/1983 08:15    6.13 197.00 2384 1,268.0 True x
4/13/1983 12:45    4.52 10 219.00 1264 747.4 True x
4/13/1983 17:40    4.90  221.00 1512 902.2 True x
4/22/1983 10:30    3.20 11 34.00 488.3 44.8 True x
4/28/1983 16:00    2.81 16 18.00 319.1 15.5 True x
5/13/1983 10:20    2.90 16 36.00 356.1 34.6 True x
5/19/1983 10:10    3.60 14 49.00 692.8 91.7 True x
5/27/1983 09:30    2.83 14 51.00 327.3 45.1 True x
6/1/1983 10:45    2.58 14 41.00 235.2 26.0 True x
7/8/1983 13:20    2.00 26 28.00 76.3 5.8 True x
7/15/1983 10:30    1.85 29 26.00 48.5 3.4 True x
7/20/1983 10:30    1.78 29 26.00 38 2.7 True x
8/1/1983 12:30    1.36 28 38.00 0.5 True x
8/31/1983 14:20    1.36 26 49.00 0.7 True x
9/16/1983 15:30    0.96 21 40.00 0.2 0.0 True x
9/21/1983 10:30    1.33 15 30.00 4.1 0.3 True x
10/7/1983 10:40    0.91 14 17.00 0.3 True x
10/19/1983 10:30    0.95 11 15.00 0.3 True x
10/27/1983 10:00    1.33 11.00 37 1.1 True x
11/4/1983 11:00    1.29 10 9.00 33 0.8 True x
11/30/1983 11:30    4.05 59.00 1010 160.9 True x
12/13/1983 11:15    6.87 154.00 2952 1,227.4 True x
2/3/1984 13:00    2.33 5.00 245 3.3 True x
2/13/1984 15:45    16.20 782.00 15720 33,191.2 True x
2/16/1984 08:50    5.50 125.00 1900 641.3 True x
2/22/1984 16:00    4.09 30.00 1031 83.5 True x
3/2/1984 11:10    2.57 14.00 324 12.2 True x
3/9/1984 12:30    2.55 66.00 317 56.5 True x
3/16/1984 13:45    9.03 1,604.00 5006 21,680.0 True x
3/21/1984 13:55    8.63 257.00 4564 3,167.0 True x
3/28/1984 14:45    5.66 142.00 2014 772.2 True x
4/3/1984 13:00    3.09 44.00 541 64.3 True x
4/12/1984 13:00    2.60 10 65.00 335 58.8 True x
4/19/1984 10:30    2.67 33.00 361 32.2 True x
4/26/1984 09:10    3.61 11 79.00 795 169.6 True x
5/2/1984 15:10    2.83 13 22.00 425 25.2 True x
5/10/1984 11:00    2.19 11 12.00 204 6.6 True x
5/17/1984 12:25    1.91 17 21.00 133 7.5 True x
5/24/1984 12:00    6.17 15 174.00 2394 1,124.7 True x
5/30/1984 16:30    4.89 14 114.00 1481 455.9 True x
6/5/1984 11:00    2.89 20 98.00 450 119.1 True x
6/12/1984 12:30    2.24 24 57.00 218 33.6 True x
6/23/1984 16:20    1.72 26 39.00 94 9.9 True x
6/28/1984 13:50    1.54 24 66.00 64 11.4 True x
7/5/1984 11:00    1.33 24 57.00 37 5.7 True x
7/11/1984 16:15    1.26 28 39.00 30 3.2 True x
7/19/1984 12:40    0.97 25 14.00 0.3 True x
7/26/1984 12:00    0.97 21 8.00 0.2 True x
8/2/1984 12:00    0.91 26 10.00 0.2 True x
8/8/1984 09:15    0.90 27 23.00 0.4 True x
8/17/1984 10:00    0.87 23 32.00 0.5 True x
8/21/1984 11:00    0.85 22 26.00 0.4 True x
8/29/1984 12:45    0.73 26 13.00 0.1 True x
9/5/1984 10:00    0.70 17 16.00 0.1 True x
9/12/1984 09:50    0.91 20 16.00 0.3 True x
9/21/1984 13:20    0.89 20 13.00 0.2 True x
9/27/1984 16:40    0.88 13 10.00 0.2 True x
10/4/1984 14:00    0.89 15 21.00 0.3 True x
10/10/1984 15:20    0.96 18 22.00 0.5 True x
10/17/1984 09:30    1.04 13 17.00 12 0.6 True x
10/26/1984 09:00    1.07 10 11.00 14 0.4 True x
11/2/1984 14:00    1.89 90.00 129 31.3 True x
11/9/1984 13:00    1.14 14.00 19 0.7 True x
11/14/1984 12:25    1.65 30.00 81 6.6 True x
11/21/1984 09:30    1.21 9.00 25 0.6 True x
11/29/1984 12:00    2.67 83.00 361 80.9 True x
12/13/1984 10:10    1.47 7.00 54 1.0 True x
12/18/1984 09:30    2.10 39.00 180 19.0 True x
12/28/1984 12:55    2.47 25.00 290 19.6 True x
1/3/1985 09:45    4.85 132.00 1457 519.3 True x
1/9/1985 09:30    2.57 11.00 324 9.6 True x
2/11/1985 14:00    2.21 109.00 209 61.5 True x
2/24/1985 08:50    16.18 882.00 15680 37,340.4 True x
3/5/1985 13:00    8.49 661.00 4414 7,877.7 True x
3/14/1985 11:00    4.96 119.00 1525 490.0 True x
3/18/1985 11:15    3.23 108.00 610 177.9 True x
3/28/1985 13:00    4.09 11 324.00 1031 901.9 True x
4/3/1985 12:30    3.78 10 125.00 880 297.0 True x
4/11/1985 13:30    2.97 55.00 485 72.0 True x
4/18/1985 18:00    2.62 19 11.00 343 10.2 True x
4/24/1985 17:00    2.22  103.00 212 59.0 True x
4/30/1985 17:00    1.82  68.00 113 20.7 True x
5/3/1985 14:20    1.82 16 46.00 113 14.0 True x
5/17/1985 08:00    1.67  48.00 85 11.0 True x
6/6/1985 11:40    1.36 21 65.00 40 7.0 True x
6/15/1985 18:30    1.92  267.00 136 98.0 True x
6/23/1985 17:20    1.61  157.00 75 31.8 True x
7/2/1985 17:00    1.86  17.00 122 5.6 True x
7/11/1985 18:30    1.24  39.00 28 2.9 True x
7/22/1985 16:40    1.00 30 14.00 10 0.4 True x
7/22/1985 18:00    0.97 28 16.00 10 0.4 True x
8/15/1985 15:00    1.48 25 34.00 55 5.0 True x
9/12/1985 18:00    1.37 20 79.00 41 8.7 True x
9/13/1985 12:45    1.25 18 61.00 29 4.8 True x
9/27/1985 16:40    1.04 19 44.00 12 1.4 True x
10/3/1985 12:30    0.94 14 57.00 1.2 True x
10/11/1985 10:00    1.29 12 46.00 33 4.1 True x
10/17/1985 13:00    1.69 17 106.00 88 25.2 True x
10/28/1985 17:12    1.84 12 132.00 118 42.1 True x
11/2/1985 11:00    5.52 11 486.00 1914 2,511.6 True x
11/7/1985 13:40    3.95 11 100.00 962 259.7 True x
11/12/1985 16:00    5.12 10 135.00 1631 594.5 True x
11/13/1985 12:30    5.70 11 166.00 2043 915.7 True x
11/19/1985 12:45    15.65 15 688.00 14710 27,325.3 True x
11/27/1985 15:00    3.92 105.00 949 269.0 True x
12/6/1985 15:45    4.01 92.00 990 245.9 True x
12/20/1985 11:00    4.17 135.00 1072 390.7 True x
1/16/1986 11:30    1.71 71.00 92 17.6 True x
2/7/1986 14:50    2.60 96.00 335 86.8 True x
2/20/1986 15:30    7.02 524.00 3078 4,354.8 True x
2/24/1986 12:00    2.42 30.00 273 22.1 True x
3/11/1986 12:00    5.30 557.00 1756 2,640.8 True x
3/15/1986 16:30    3.78 39.00 880 92.7 True x
3/23/1986 15:15    2.90 61.00 455 74.9 True x
3/30/1986 17:15    2.12 17 24.00 185 12.0 True x
4/20/1986 14:20    1.63 14 8.00 78 1.7 True x
4/23/1986 13:00    1.57 11 4.00 68 0.7 True x
5/9/1986 11:40    1.99 18 93.00 152 38.2 True x
5/16/1986 15:00    2.58 18 154.00 328 136.4 True x
5/20/1986 13:00    2.56 14 121.00 321 104.9 True x
5/30/1986 12:00    3.12 21 137.00 555 205.3 True x
6/4/1986 18:43    2.20 21 155.00 207 86.6 True x
6/12/1986 13:45    2.93 19 197.00 468 248.9 True x
6/20/1986 12:40    2.03 26 186.00 162 81.4 True x
6/28/1986 17:30    2.09 26 134.00 177 64.0 True x
7/2/1986 08:30    6.29 22 570.00 2486 3,826.0 True x
7/12/1986 18:50    7.53 21 233.00 3524 2,216.9 True x
7/19/1986 17:30    2.30 26 165.00 236 105.1 True x
7/24/1986 13:30    1.71 28 77.00 92 19.1 True x
7/26/1986 20:25    1.65 24 46.00 81 10.1 True x
8/1/1986 18:35    1.25 25 17.00 29 1.3 True x
8/9/1986 15:20    1.25 25 31.00 29 2.4 True x
8/16/1986 17:30    1.05 26 24.00 13 0.8 True x
8/30/1986 19:00    0.87 20 31.00 0.5 True x
9/5/1986 14:00    0.86 24 35.00 0.5 True x
9/6/1986 15:30    0.80 21 48.00 0.5 True x
9/8/1986 15:00    0.83 19 29.00 0.3 True x
9/14/1986 19:00    1.04 19 36.00 12 1.2 True x
9/21/1986 17:35    1.51 20 38.00 59 6.1 True x
9/28/1986 13:30    1.64 22 61.00 80 13.2 True x
9/30/1986 11:45    2.65 20 61.00 354 58.3 True x
10/4/1986 10:30    12.30 17 318.00 9871 8,475.2 True x
10/12/1986 15:30    3.03 13 141.00 543.7 207.0 True x
10/22/1986 13:45    2.09 15 130.00 196.3 68.9 True x
10/22/1986 14:40    2.09 15 110.00 196.3 58.3 True x
11/18/1986 15:30    1.95 11.00 158.2 4.7 True x
11/23/1986 16:00    2.00 8.00 172 3.7 True x
11/30/1986 13:30    3.70 61.00 885.3 145.8 True x
12/7/1986 14:00    2.91 36.00 488.6 47.5 True x
12/15/1986 11:30    2.60 41.00 357 39.5 True x
12/17/1986 14:00    2.42 118.00 294.2 93.7 True x
12/17/1986 15:12    2.41 112.00 291.1 88.0 True x
12/24/1986 12:45    4.61 94.00 1448 367.5 True x
12/27/1986 13:00    2.02  61.00 177.3 29.2 True x
1/3/1987 13:15    1.96 51.00 160.9 22.2 True x
2/10/1987 12:00    2.74 114.00 414.3 127.5 True x
3/3/1987 11:00    2.34 73.00 269.2 53.1 True x
3/4/1987 14:00    2.19 18.00 224.5 10.9 True x
3/4/1987 14:50    2.19 17.00 224.5 10.3 True x
4/15/1987 11:00    2.84 12 123.00 457.4 151.9 True x
4/16/1987 13:00    2.00 12 95.00 172 44.1 True x
4/16/1987 13:40    2.83 12 76.00 453 93.0 True x
4/25/1987 16:30    2.46 14 21.00 307 17.4 True x
5/2/1987 17:45    2.11 15 36.00 201.8 19.6 True x
5/9/1987 19:00    1.81 19 21.00 122.4 6.9 True x
5/16/1987 17:30    1.75 20 59.00 109.2 17.4 True x
5/19/1987 12:30    4.00 21 347.00 1060 993.1 True x
5/19/1987 13:50    4.00 21 329.00 1060 941.6 True x
5/20/1987 12:15    3.34  119.00 693.2 222.7 True x
5/30/1987 12:45    2.30 18 143.00 284.8 110.0 True x
6/6/1987 17:45    2.60 22 152.00 357 146.5 True x
6/12/1987 12:15    1.87  143.00 137.2 53.0 True x
6/20/1987 15:30    1.41 25 78.00 47.4 10.0 True x
6/27/1987 17:30    1.82 21 121.00 124.8 40.8 True x
7/4/1987 18:00    1.48 19 57.00 57.8 8.9 True x
7/11/1987 19:00    1.18 27 40.00 19.6 2.1 True x
7/19/1987 19:15    1.00 27 39.00 6.3 0.7 True x
7/22/1987 13:20    0.96 30 33.00 5.1 0.5 True x
7/22/1987 14:10    0.96 30 35.00 5.1 0.5 True x
8/1/1987 19:00    1.00 28 58.00 6.3 1.0 True x
8/8/1987 17:45    0.90 23 40.00 3.6 0.4 True x
8/21/1987 11:00    0.88 21 50.00 3.2 0.4 True x
8/27/1987 13:00    1.34 18 50.00 37.9 5.1 True x
9/12/1987 17:15    0.95 21 27.00 4.9 0.4 True x
9/19/1987 18:15    0.88  42.00 3.2 0.4 True x
9/22/1987 15:05    0.99 18 23.00 0.4 True x
9/22/1987 16:00    0.99 18 26.00 0.4 True x
10/8/1987 11:00    0.87 29.00 0.2 True x
10/16/1987 11:30    0.76 14 69.00 1.4 0.3 True x
10/25/1987 16:15    0.90 14 25.00 3.6 0.2 True x
10/31/1987 15:30    0.98 11 86.00 5.7 1.3 True x
11/4/1987 13:30    1.12 17 101.00 13.5 3.7 True x
11/4/1987 14:10    1.12 17 100.00 13.5 3.6 True x
11/12/1987 12:15    0.92 37.00 4.1 0.4 True x
11/17/1987 12:00    1.00 10 69.00 6.3 1.2 True x
11/28/1987 15:45    1.25 18.00 27.2 1.3 True x
12/4/1987 11:45    1.71 41.00 101 11.2 True x
12/10/1987 11:30    2.96 88.00 511.4 121.5 True x
12/19/1987 16:00    2.34 70.00 269.2 50.9 True x
12/24/1987 13:25    4.75 84.00 1544 350.2 True x
12/24/1987 14:05    4.78 90.00 1565 380.3 True x
12/30/1987 13:00    4.40 62.00 1309 219.1 True x
1/18/1988 13:15    4.18 403.00 1169 1,272.0 True x
1/28/1988 12:00    2.44 60.00 300.6 48.7 True x
2/22/1988 10:00    3.35 44.00 698.2 82.9 True x
3/1/1988 12:30    1.96 68.00 160.9 29.5 True x
3/8/1988 10:00    2.05 66.00 182.6 32.5 True x
3/10/1988 14:15    2.39 75.00 284.8 57.7 True x
3/10/1988 15:15    2.39 89.00 284.8 68.4 True x
3/13/1988 11:45    1.97 79.00 163.6 35.3 True x
3/25/1988 11:30    2.27 12 95.00 248 63.7 True x
3/29/1988 10:45    4.22 254.00 1194 821.6 True x
4/6/1988 14:30    5.79 11 942.00 2340 5,951.6 True x
4/6/1988 15:00    6.02 11 948.00 2537 6,493.7 True x
4/8/1988 10:30    4.77 11 160.00 1551 670.4 True x
4/15/1988 10:30    2.57 94.00 345.7 88.5 True x
4/22/1988 12:00    2.10 61.00 199 33.2 True x
4/29/1988 11:45    1.94 14 59.00 155.5 25.0 True x
5/7/1988 15:00    1.77 19 39.00 113.5 12.2 True x
5/10/1988 11:00    2.00 14 98.00 172 46.0 True x
5/24/1988 11:30    1.87 18 93.00 137.2 34.8 True x
6/9/1988 12:00    1.40 20 85.00 46 10.6 True x
6/18/1988 19:00    1.05 25 41.00 8.4 0.9 True x
6/25/1988 18:30    0.88 26 41.00 3.2 0.4 True x
7/23/1988 17:45    0.80 25 47.00 1.9 0.2 True x
7/30/1988 17:45    0.80 23.00 1.9 0.1 True x
8/5/1988 11:50    0.93 28 15.00 4.3 0.2 True x
8/5/1988 12:15    0.93 28 14.00 4.3 0.2 True x
8/13/1988 19:30    1.00 26 20.00 6.3 0.4 True x
8/20/1988 19:00    1.13 24 58.00 13.5 2.1 True x
8/27/1988 18:45    1.20 17 28.00 22 1.7 True x
9/10/1988 19:30    0.92 18 43.00 4.1 0.5 True x
9/16/1988 12:45    0.72 17 50.00 0.9 0.1 True x
9/23/1988 12:30    0.94 19 57.00 4.6 0.7 True x
9/29/1988 11:45    0.88 19 77.00 3.2 0.7 True x
10/7/1988 13:00    0.96 11 48.00 5.1 0.7 True x
10/7/1988 14:15    0.97 14 35.00 5.4 0.5 True x
10/7/1988 14:50    0.97 14 38.00 5.4 0.6 True x
10/13/1988 11:00    0.90 44.00 3.6 0.4 True x
10/29/1988 15:00    1.01 45.00 6.7 0.8 True x
11/5/1988 13:00    1.08 63.00 10.3 1.8 True x
11/11/1988 13:45    1.42 19.00 48.8 2.6 True x
11/18/1988 13:15    1.53 34.00 66.1 6.2 True x
11/24/1988 12:15    1.30 6.00 33 0.5 True x
12/2/1988 12:30    1.18 6.00 19.6 0.3 True x
12/8/1988 11:45    1.12 49.00 13.5 1.8 True x
12/24/1988 09:45    1.60 6.00 79 1.3 True x
1/11/1989 11:30    2.45 26.00 303.8 22.0 True x
1/25/1989 12:15    1.59 43.00 77.1 9.0 True x
1/31/1989 12:30    1.76 12 24.00 111.3 7.4 True x
3/13/1989 12:50    2.44 13.00 300.6 11.3 True x
3/13/1989 13:45    2.44 25.00 300.6 20.9 True x
3/18/1989 15:30    2.21 60.00 230.3 37.4 True x
3/25/1989 18:30    1.98 15 50.00 166.4 22.7 True x
3/27/1989 11:15    2.42 13 93.00 294.2 74.3 True x
4/5/1989 11:15    3.38 132.00 713.5 255.2 True x
4/5/1989 12:30    3.35 136.00 698.2 257.8 True x
4/7/1989 11:30    1.74 11 83.00 107.1 24.0 True x
4/15/1989 15:00    2.18 15 40.00 221.6 23.9 True x
4/20/1989 10:45    1.97 47.00 163.6 21.0 True x
4/28/1989 12:30    2.00 35.00 172 16.6 True x
5/11/1989 10:00    1.82 14 42.00 124.8 14.5 True x
5/11/1989 11:00    1.84 15 17.00 129.7 6.0 True x
5/18/1989 10:45    1.68 18 6.00 94.8 1.5 True x
5/25/1989 12:15    2.15 18 11.00 213 6.8 True x
6/1/1989 13:00    2.31 19 17.00 260.1 12.6 True x
6/2/1989 09:00    3.64 20 65.00 851.9 150.8 True x
6/2/1989 10:00    3.63 21 65.00 846.4 150.2 True x
6/8/1989 12:00    2.30 21 63.00 284.8 48.7 True x
6/15/1989 19:30    2.05 15 41.00 182.6 20.7 True x
6/24/1989 16:00    1.59 21 50.00 77.1 10.5 True x
6/28/1989 10:45    1.78 24 22.00 115.6 7.0 True x
7/8/1989 19:30    1.25 26 15.00 27.2 1.1 True x
7/13/1989 11:45    1.97 23 20.00 163.6 9.0 True x
7/28/1989 10:30    3.06 23 48.00 557.5 73.4 True x
8/3/1989 12:00    1.76 24 83.00 111.3 25.2 True x
8/19/1989 18:00    1.20 23 28.00 22 1.7 True x
8/21/1989 09:30    1.02 24 18.00 7.1 0.4 True x
8/21/1989 10:30    1.02 25 17.00 7.1 0.3 True x
8/26/1989 15:15    2.18 21 43.00 221.6 26.2 True x
9/7/1989 16:00    12.82 21 169.00 10630 4,868.8 True x
10/4/1989 09:30    2.09 11 71.00 196.3 38.1 True x
10/4/1989 10:00    2.09 12 109.00 196.3 57.9 True x
10/21/1989 18:00    3.03  105.00 543.7 154.2 True x
11/3/1989 10:00    2.03 90.00 177.3 43.6 True x
11/16/1989 13:00    5.33 116.00 1968 620.5 True x
11/16/1989 13:45    5.31 117.00 1953 618.7 True x
11/25/1989 13:45    2.41 65.00 291.1 51.4 True x
12/2/1989 16:00    2.10 34.00 199 18.6 True x
1/19/1990 12:15    3.70 157.00 885.3 376.2 True x
2/3/1990 15:15    5.04 182.00 1751 865.1 True x
2/21/1990 12:15    3.47 154.00 760.3 316.7 True x
3/9/1990 10:30    6.04 340.00 2554 2,345.4 True x
4/14/1990 17:00    2.25 35.00 242.1 23.0 True x
4/21/1990 19:00    2.39 11 30.00 284.8 23.1 True x
5/6/1990 10:00    5.71  147.00 2273 903.2 True x
5/13/1990 13:45    7.55 14 445.00 3990 4,801.8 True x
5/18/1990 10:30    3.83 15 154.00 959.4 399.2 True x
5/18/1990 11:15    3.81 15 170.00 947.8 435.2 True x
5/20/1990 11:30    3.30 13 119.00 673 217.9 True x
5/28/1990 18:30    2.97 17 134.00 516 186.7 True x
6/8/1990 13:00    2.32 19 119.00 260.1 83.9 True x
6/30/1990 17:00    7.86  229.00 4313 2,674.4 True x
7/21/1990 15:30    6.04 19 206.00 2554 1,426.5 True x
7/28/1990 19:30    2.29 22 128.00 254 88.3 True x
8/18/1990 18:15    1.60 23 30.00 79 6.5 True x
8/22/1990 10:45    4.45 18 104.00 1342 378.4 True x
8/23/1990 11:00    3.55 22 137.00 802.9 298.4 True x
8/23/1990 11:30    3.55 22 135.00 802.9 293.4 True x
10/11/1990 13:00    7.82 12 163.00 4271 1,880.3 True x
11/29/1990 12:30    14.77 292.00 13640 10,777.3 True x
12/20/1990 13:15    2.81 32.00 444.3 39.0 True x
1/1/1991 12:30    3.97 68.00 1042 192.5 True x
1/8/1991 12:00    2.62 29.00 365 28.6 True x
1/15/1991 11:45    2.13 80.00 207.4 45.0 True x
1/26/1991 13:45    2.11 101.00 201.8 55.4 True x
2/8/1991 12:00    4.15 105.00 1151 328.0 True x
2/13/1991 11:00    2.90 24.00 484.1 31.7 True x
2/25/1991 12:00    2.61 69.00 361 67.6 True x
3/4/1991 08:45    4.46 114.00 1348 417.1 True x
3/11/1991 11:30    2.74 103.00 414.3 115.4 True x
7/8/1991 11:00    1.12 25 32.00 13.5 1.2 True x
7/16/1991 12:15    0.90 24 28.00 3.6 0.3 True x
7/22/1991 08:30    0.87 23 24.00 0.2 True x
8/21/1991 10:30    0.75 19 27.00 1.2 0.1 True x
9/10/1991 09:00    0.86 22 38.00 2.8 0.3 True x
9/17/1991 12:00    0.86 20 27.00 2.8 0.2 True x
9/24/1991 11:00    0.78 13 31.00 1.6 0.1 True x
10/1/1991 12:15    0.70 15 21.00 0.7 0.0 True x
10/9/1991 16:30    1.20 15 28.00 22 1.7 True x
10/15/1991 09:00    0.97 12.00 5.4 0.2 True x
10/23/1991 12:30    0.91 14 9.00 3.8 0.1 True x
10/30/1991 12:45    3.96 10 238.00 1036 667.3 True x
11/6/1991 12:45    2.28 8.00 251 5.8 True x
11/12/1991 12:00    1.81 26.00 122.4 8.7 True x
3/2/1992 10:45    1.44 88.00 51.7 12.4 True x
3/9/1992 11:30    2.81 11 93.00 444.3 112.1 True x
3/16/1992 11:45    2.21 8.00 230.3 5.2 True x
3/23/1992 12:30    2.85 83.00 461.8 103.7 True x
3/30/1992 13:15    2.20 55.00 227.4 34.0 True x
4/7/1992 11:30    1.91 55.00 147.6 22.1 True x
5/8/1992 11:55    1.59 19 57.00 77.1 12.1 True x
5/16/1992 17:30    1.61 20 48.00 80.9 10.6 True x
7/4/1992 11:45    1.22 22 19.00 24 1.3 True x
7/8/1992 11:00    1.54 20 17.00 67.9 3.1 True x
7/14/1992 11:00    1.39 18 43.00 44.6 5.2 True x
7/21/1992 10:30    1.82 18 78.00 124.8 26.4 True x
7/27/1992 10:15    4.91 18 143.00 1657 642.2 True x
8/3/1992 11:30    2.82 18 100.00 448.7 121.8 True x
8/10/1992 10:30    1.65 20 75.00 88.7 18.1 True x
8/19/1992 12:30    1.19 20 14.00 20.8 0.8 True x
8/26/1992 12:30    1.04 22 14.00 0.3 True x
11/11/1992 13:53    4.11 10 89.00 1126 271.7 True x
11/17/1992 12:15    3.31 113.00 678 208.0 True x
11/27/1992 12:00    3.88 79.00 988.5 213.5 True x
3/3/1993 12:15    4.95 317.00 1686 1,444.5 True x
3/9/1993 15:05    4.49 61.00 1368 226.5 True x
5/11/1993 12:43    2.11 22 65.00 201.8 35.6 True x
5/11/1993 13:52    2.11 23 78.00 201.8 42.6 True x
5/24/1994 12:25    1.86 24 116.00 134.7 42.2 True x
5/31/1994 09:15    1.68 24 68.00 94.8 17.5 True x
6/8/1994 13:00    1.85 20 59.00 132.2 21.4 True x
6/19/1994 10:00    1.45 29 40.00 53.2 5.9 True x
6/26/1994 10:00    1.45 25 36.00 53.2 5.2 True x
7/3/1994 10:00    1.20 23 138.00 22 8.3 True x
7/10/1994 09:30    1.24 22 79.00 26.1 5.6 True x
7/17/1994 09:30    1.38 25 64.00 43.2 7.6 True x
7/24/1994 09:30    1.65 25 75.00 88.7 18.1 True x
7/31/1994 09:30    1.04 23 39.00 0.9 True x
8/7/1994 09:30    0.92 20 52.00 4.1 0.6 True x
8/14/1994 10:00    1.31 22 45.00 34.2 4.2 True x
8/21/1994 10:00    1.05 22 35.00 8.4 0.8 True x
8/28/1994 10:00    0.90 25 42.00 3.6 0.4 True x
9/4/1994 10:00    0.95 21 41.00 4.9 0.5 True x
9/11/1994 10:00    0.80 24 178.00 1.9 0.9 True x
9/18/1994 10:00    0.80 19 25.00 1.9 0.1 True x
9/25/1994 10:00    1.00 16 37.00 6.3 0.6 True x
10/2/1994 10:00    1.00 15 16.00 6.3 0.3 True x
10/9/1994 10:00    1.00 15 16.00 6.3 0.3 True x
10/14/1994 10:00    1.05 17 78.00 8.4 1.8 True x
10/23/1994 10:00    1.00 13 80.00 6.3 1.4 True x
10/30/1994 10:00    1.00 12 161.00 6.3 2.7 True x
11/6/1994 10:00    3.64 13 191.00 851.9 440.1 True x
11/14/1994 10:00    2.40 12 117.00 287.9 91.3 True x
11/20/1994 10:00    1.85 10 89.00 132.2 32.0 True x
11/27/1994 15:00    2.14 11 91.00 210.2 52.0 True x
12/4/1994 10:00    2.05 14 206.00 185.3 103.1 True x
12/11/1994 10:00    3.65 13 67.00 857.4 156.4 True x
12/18/1994 10:00    3.05 15 127.00 552.9 191.0 True x
12/23/1994 15:00    2.40 14 120.00 287.9 93.9 True x
1/15/1995 10:00    3.00 11 106.00 530 153.1 True x
1/22/1995 10:00    2.75 11 41.00 418.5 46.8 True x
1/29/1995 10:00    2.45 11 87.00 303.8 71.8 True x
2/5/1995 10:00    2.35 13 102.00 272.3 75.2 True x
2/26/1995 10:00    2.15 13 114.00 213 65.7 True x
3/5/1995 10:00    2.00 13 113.00 172 52.5 True x
3/8/1995 15:54    4.53 385.00 1395 1,450.7 True x
3/8/1995 16:32    4.45 381.00 1342 1,380.9 True x
3/12/1995 10:00    3.85 13 77.00 971 202.3 True x
3/19/1995 10:00    2.45 12 127.00 303.8 104.9 True x
3/26/1995 10:00    2.30 12 92.00 257 64.3 True x
4/2/1995 10:00    2.20 12 77.00 227.4 47.8 True x
4/9/1995 10:00    2.10 12 43.00 199 23.5 True x
4/16/1995 10:00    2.50 15 54.00 320 47.2 True x
4/23/1995 10:00    3.00 14 112.00 530 161.2 True x
5/1/1995 10:00    2.30 18 88.00 257 61.3 True x
5/7/1995 10:00    2.20 18 79.00 227.4 49.0 True x
5/14/1995 10:00    2.45 15 108.00 303.8 89.2 True x
5/21/1995 10:00    4.00 15 117.00 1060 336.4 True x
5/28/1995 10:00    3.10 19 81.00 576.1 126.6 True x
6/4/1995 10:00    3.10 19 94.00 576.1 146.5 True x
6/9/1995 12:23    2.49 18 88.00 316.7 75.9 True x
6/9/1995 12:39    2.50 18 102.00 320 88.6 True x
6/11/1995 10:00    2.65 20 102.00 377 104.5 True x
6/18/1995 10:00    2.15 24 88.00 213 50.8 True x
6/24/1995 10:00    1.95 25 79.00 158.2 33.9 True x
7/2/1995 10:00    2.45 21 71.00 303.8 59.0 True x
7/9/1995 10:00    1.70 24 34.00 99 9.2 True x
7/16/1995 10:00    1.10 28 30.00 11.7 1.0 True x
7/19/1995 10:00    0.95 29 18.00 4.9 0.2 True x
7/29/1995 10:00    0.85 27 20.00 2.7 0.1 True x
8/5/1995 10:00    2.20 25 42.00 227.4 26.0 True x
8/12/1995 10:00    1.30 28 50.00 33 4.5 True x
8/19/1995 12:00    0.95 30 21.00 4.9 0.3 True x
8/26/1995 10:00    0.90 26 26.00 3.6 0.3 True x
9/2/1995 10:00    0.80 21 21.00 1.9 0.1 True x
9/9/1995 10:00    0.80 18 16.00 1.9 0.1 True x
9/16/1995 10:00    1.64 16 12.00 86.7 3.0 True x
9/23/1995 10:00    0.76 14 23.00 1.4 0.1 True x
9/30/1995 10:00    0.73 18 6.00 0.0 True x
10/4/1995 12:29    1.54 7.00 67.9 1.4 True x
11/4/1995 10:00    1.00 11 7.00 6.3 0.1 True x
11/11/1995 10:00    0.95 12.00 4.9 0.2 True x
11/17/1995 10:00    2.00 83.00 172 38.6 True x
11/25/1995 10:00    1.85 89.00 132.2 32.1 True x
12/2/1995 10:00    1.65 94.00 88.7 22.6 True x
12/4/1995 10:00    1.65 89.00 88.7 21.4 True x
12/4/1995 13:00    1.54 7.00 67.9 1.4 True x
3/9/1996 10:00    1.60 5.00 79 1.1 True x
3/13/1996 10:00    1.55 4.00 69.7 0.9 True x
3/22/1996 12:27    1.53 9.00 66.1 1.6 True x
3/22/1996 12:45    1.53 7.00 66.1 1.3 True x
3/23/1996 10:00    1.55 4.00 69.7 0.9 True x
3/30/1996 10:00    1.70 6.00 99 1.9 True x
4/6/1996 10:00    1.75 99.00 109.2 29.3 True x
4/13/1996 10:00    1.65 14 7.00 88.7 1.8 True x
4/20/1996 10:00    2.20 13 50.00 227.4 31.3 True x
4/27/1996 10:00    2.60 13 78.00 357 75.4 True x
5/4/1996 10:00    2.40 13 43.00 287.9 34.0 True x
5/7/1996 10:00    2.65 13 104.00 337 94.8 True x
5/7/1996 12:42    2.61 11 116.00 361 113.2 True x
5/7/1996 13:11    2.60 11 110.00 357 106.1 True x
5/25/1996 10:00    3.75 13 99.00 913.5 244.4 True x
5/31/1996 10:00    4.85 16 99.00 1614 433.6 True x
6/8/1996 10:00    2.95 17 122.00 506.8 167.9 True x
6/15/1996 10:00    2.50 18 122.00 320 106.2 True x
6/21/1996 11:54    3.35 22 79.00 698.2 150.6 True x
6/21/1996 12:18    3.34 22 81.00 693.2 151.6 True x
6/22/1996 10:00    3.05 21 65.00 552.9 97.1 True x
6/29/1996 10:00    2.00 24 84.00 172 39.2 True x
7/6/1996 10:00    1.80 24 92.00 120 30.1 True x
7/13/1996 10:00    1.50 24 50.00 61 8.3 True x
7/20/1996 10:00    4.25 20 119.00 1213 391.8 True x
7/27/1996 10:00    3.20 22 105.00 623.8 178.4 True x
8/3/1996 10:00    3.57 22 35.00 813.7 79.0 True x
8/10/1996 10:00    2.00 23 13.00 172 6.1 True x
8/17/1996 10:00    1.50 23 63.00 61 10.5 True x
8/22/1996 09:00    1.30 20 8.00 33 0.7 True x
9/7/1996 10:00    0.80 20 6.00 1.9 0.0 True x
9/14/1996 10:00    0.80 21 6.00 1.9 0.0 True x
9/22/1996 10:00    0.75 21 7.00 1.2 0.0 True x
9/28/1996 10:00    0.85 19 6.00 2.7 0.0 True x
10/5/1996 10:00    0.95 19 5.00 4.9 0.1 True x
10/12/1996 10:00    1.05 18 6.00 8.4 0.2 True x
10/19/1996 10:00    1.25 16 8.00 27.2 0.6 True x
10/26/1996 10:00    1.20 16 7.00 22 0.5 True x
11/2/1996 10:00    1.15 16 6.00 16.4 0.3 True x
11/9/1996 10:00    1.70 64.00 99 17.2 True x
11/16/1996 10:00    1.60 16.00 79 3.5 True x
11/23/1996 10:00    1.65 2.00 88.7 0.6 True x
11/30/1996 10:00    1.75 2.00 109.2 0.6 True x
12/7/1996 10:00    1.50 25.00 61 4.1 True x
12/9/1996 12:14    1.96 12.00 160.9 5.5 True x
12/9/1996 12:41    1.93 31.00 152.8 12.8 True x
12/14/1996 10:00    1.50 36.00 61 6.1 True x
2/28/1997 10:00    6.50 36.00 2967 292.2 True x
3/1/1997 10:00    7.10 32.00 3538 308.6 True x
3/5/1997 10:00    6.50 28.00 2967 224.7 True x
3/5/1997 11:50    3.91 38.00 1006 103.3 True x
3/5/1997 12:13    3.87 47.00 982.7 126.9 True x
3/15/1997 10:00    3.50 80.00 776.1 169.1 True x
3/22/1997 10:00    3.00 74.00 530 106.6 True x
3/29/1997 10:00    2.50 11 64.00 320 55.3 True x
4/5/1997 10:00    2.50 11 71.00 320 61.6 True x
4/12/1997 10:00    2.15 12 63.00 213 36.8 True x
4/19/1997 10:00    2.05 12 71.00 185.3 35.6 True x
4/22/1997 11:40    2.62 11 39.00 365 39.2 True x
4/22/1997 11:56    2.63 12 48.00 369 47.9 True x
4/26/1997 10:00    1.85 11 68.00 132.2 24.5 True x
5/3/1997 10:00    1.80 11 62.00 120 20.3 True x
5/10/1997 10:00    1.80 11 77.00 120 25.0 True x
5/17/1997 10:00    1.90 11 83.00 145 32.6 True x
5/24/1997 10:00    2.15 11 84.00 213 48.5 True x
5/31/1997 10:00    1.95 11 79.00 158.2 34.0 True x
6/5/1997 11:34    1.85 21 78.00 132.2 27.9 True x
6/5/1997 11:51    1.86 21 77.00 134.7 28.3 True x
6/7/1997 10:00    1.95 13 117.00 158.2 50.0 True x
6/14/1997 10:00    2.00 13 113.00 172 52.8 True x
6/21/1997 10:00    3.50 14 103.00 776.1 217.5 True x
6/28/1997 10:00    2.50 20 60.00 320 52.5 True x
7/5/1997 10:00    1.45 20 50.00 53.2 7.3 True x
7/12/1997 10:00    1.40 26 17.00 46 2.2 True x
7/19/1997 10:00    1.40 25 18.00 46 2.3 True x
7/23/1997 11:56    1.51 25 19.00 62.7 3.3 True x
7/23/1997 12:12    1.53 25 26.00 66.1 4.7 True x
7/28/1997 10:00    1.55 26 10.00 69.7 1.9 True x
8/2/1997 10:00    1.55 26 51.00 69.7 9.8 True x
8/9/1997 10:00    1.40 26 27.00 46 3.5 True x
8/16/1997 10:00    1.65 24 20.00 88.7 4.9 True x
8/23/1997 10:00    1.20 24 36.00 22 2.2 True x
8/30/1997 10:00    1.40 24 6.00 46 0.9 True x
9/6/1997 10:00    1.30 23 7.00 33 0.6 True x
9/13/1997 10:00    1.20 22 19.00 22 1.2 True x
9/20/1997 10:00    1.25 24 7.00 27.2 0.5 True x
9/27/1997 10:00    1.05 20 62.00 8.4 1.4 True x
10/4/1997 10:00    1.00 19 21.00 6.3 0.4 True x
10/11/1997 10:00    0.90 18 22.00 3.6 0.2 True x
9/19/2001 14:04    2.19 19 45.00 224.5 27.5 True x
10/3/2001 14:02    1.41 21 9.00 47.4 1.2 True x
10/3/2001 14:09    1.41 21 10.00 47.4 1.4 True x
10/10/2001 10:15    2.42 15 38.00 294.2 31.0 True x
10/14/2001 11:15    8.65 16 389.00 5177 5,439.5 True x
10/17/2001 14:35    4.62 12 84.00 1455 332.3 True x
10/24/2001 10:30    4.85 16 69.00 1614 301.1 True x
10/31/2001 14:30    2.95 13 104.00 506.8 143.6 True x
11/7/2001 14:30    2.95 13 86.00 506.8 118.5 True x
11/14/2001 11:30    2.50 11 105.00 320 90.8 True x
11/22/2001 12:40    2.20 63.00 227.4 39.2 True x
11/28/2001 16:00    2.20 1,001.00 227.4 615.0 True x
12/5/2001 08:30    2.75 12 110.00 418.5 125.0 True x
12/15/2001 15:50    2.55 94.00 338.3 86.1 True x
12/19/2001 10:30    3.53 65.00 792.1 140.2 True x
12/27/2001 10:15    2.72 122.00 405.9 134.2 True x
2/2/2002 16:10    6.02 101.00 2537 693.8 True x
2/6/2002 16:00    3.50 52.00 776.1 109.5 True x
2/13/2002 13:30    3.65 91.00 857.4 211.3 True x
2/20/2002 13:20    5.25 122.00 1907 628.9 True x
2/27/2002 14:40    2.90 97.00 484.1 127.5 True x
3/6/2002 16:45    3.07 88.00 562.1 134.8 True x
3/13/2002 12:30    4.10 35.00 1120 107.6 True x
3/20/2002 14:30    2.85 73.00 461.8 91.1 True x
3/31/2002 10:15    3.45 79.00 749.8 161.6 True x
4/10/2002 19:30    5.65 10 102.00 2223 613.0 True x
4/16/2002 10:30    3.60 72.00 830 161.9 True x
4/17/2002 10:30    3.10 20 47.00 576.1 74.0 True x
4/25/2002 10:45    3.45 12 65.00 749.8 131.8 True x
4/30/2002 17:45    4.45 12 48.00 1342 176.1 True x
5/10/2002 17:20    4.45 15 19.00 1342 69.0 True x
5/17/2002 17:15    4.43 11 51.00 1329 186.0 True x
5/22/2002 09:30    3.17 13 93.00 609.3 154.3 True x
5/29/2002 17:15    2.80 22 100.00 440 119.1 True x
6/5/2002 19:50    2.85 18 95.00 461.8 119.6 True x
6/12/2002 18:30    2.55 26 104.00 338.3 95.8 True x
6/17/2002 19:30    2.22 26 84.00 233.2 53.2 True x
6/27/2002 19:50    2.77 26 86.00 427.1 100.1 True x
7/6/2002 12:50    1.85 28 62.00 132.2 22.2 True x
7/11/2002 20:50    1.57 24 16.00 73.3 3.2 True x
7/17/2002 19:40    1.33 29 15.00 36.6 1.5 True x
7/24/2002 16:30    1.25 30 21.00 27.2 1.6 True x
8/1/2002 16:00    1.20 34 38.00 22 2.3 True x
8/7/2002 13:50    1.22 28 17.00 24 1.1 True x
8/15/2002 19:10    1.55 27 21.00 69.7 4.1 True x
8/22/2002 13:15    1.20 26 17.00 22 1.0 True x
8/28/2002 10:05    1.10 24 11.00 11.7 0.4 True x
9/4/2002 18:20    0.85 28 9.00 2.7 0.1 True x
9/18/2002 17:30    0.78 24 14.00 1.6 0.1 True x
9/25/2002 09:20    0.92 15 4.00 4.1 0.1 True x
10/5/2002 16:30    0.75 20 14.00 1.236 0.0 True x
10/17/2002 17:35    0.80 10 4.00 1.85 0.0 True x
10/24/2002 17:00    0.87 3.00 3.028 0.0 True x
10/30/2002 12:30    0.90 6.00 3.6 0.1 True x
11/6/2002 16:15    0.95 5.00 4.859 0.1 True x
12/17/2002 09:45    1.15 7.00 16.39 0.3 True x
1/9/2003 15:00    1.10 9.00 11.7 0.3 True x
3/16/2003 10:30    1.40 14.00 46 1.8 True x
3/23/2003 12:00    1.60 13 11.00 79 2.4 True x
4/1/2003 15:00    1.30 18 31.00 33 2.8 True x
4/13/2003 10:15    1.60 13 7.00 79 1.6 True x
4/23/2003 10:36    1.35 13 6.00 39.18 0.7 True x
4/29/2003 18:30    1.30 19 15.00 33 1.4 True x
5/6/2003 18:30    3.33 18 140.00 688.1 261.0 True x
5/8/2003 10:19    2.57 16 34.00 345.7 32.3 True x
5/8/2003 10:41    2.57  32.00 345.7 30.4 True x
5/13/2003 11:00    3.51 15 106.00 781.5 225.7 True x
5/17/2003 17:30    2.45 19 33.00 303.8 27.4 True x
5/26/2003 12:00    2.10 19 14.00 199 7.5 True x
6/4/2003 13:30    2.40 17 33.00 287.9 26.2 True x
6/8/2003 19:00    2.35 19 20.00 272.3 15.1 True x
6/18/2003 08:50    1.80 23 29.00 120 9.6 True x
6/27/2003 20:10    1.62 25 21.00 82.79 4.8 True x
7/9/2003 19:00    5.95 23 224.00 2476 1,497.7 True x
7/16/2003 20:15    5.00 24 82.00 1722 382.4 True x
7/19/2003 11:00    11.05 22 317.00 8140 6,981.2 True x
7/23/2003 18:10    4.10 23 41.00 1120 124.2 True x
7/30/2003 18:00    2.40 25 50.00 287.9 39.6 True x
8/6/2003 20:05    1.85 25 13.00 132.2 4.9 True x
8/14/2003 10:10    1.60 28 13.00 79 2.9 True x
8/20/2003 18:30    1.30 30 69.00 33 6.2 True x
8/26/2003 19:15    1.00 30 26.00 6.3 0.4 True x
9/4/2003 11:00    1.50 24 12.00 61 2.0 True x
9/10/2003 18:00    1.05 27 13.00 8.4 0.3 True x
9/17/2003 18:30    1.15 24 8.00 16.39 0.4 True x
9/24/2003 18:15    0.90 20 7.00 3.6 0.1 True x
10/1/2003 12:15    0.88 13 5.00 1.7 0.0 True x
10/9/2003 16:30    0.90 18 11.00 0.1 True x
10/16/2003 16:15    1.20 15 7.00 8.1 0.2 True x
10/22/2003 16:00    1.02 14 6.00 3.8 0.1 True x
10/30/2003 10:15    1.10 12 7.00 5.5 0.1 True x
11/5/2003 11:30    2.20 11 16.00 129 5.6 True x
11/19/2003 12:00    6.50 11 272.00 2860 2,103.3 True x
12/3/2003 14:45    2.35 7.00 168 3.5 True x
12/10/2003 11:45    3.35 18.00 569 28.7 True x
12/18/2003 13:00    2.50 40.00 215 23.6 True x
12/24/2003 12:00    2.10 4.00 107 1.4 True x
12/31/2003 14:30    2.05 7.00 96.5 1.9 True x
1/14/2004 12:50    1.90 9.00 69.9 1.8 True x
3/2/2004 10:30    2.20 22.00 129 7.8 True x
3/6/2004 15:30    5.80 156.00 2210 936.2 True x
3/10/2004 16:00    3.05 10.00 426 11.7 True x
3/18/2004 14:10    2.20 6.00 129 2.2 True x
3/27/2004 13:50    3.57 13 36.00 687 67.7 True x
3/31/2004 14:30    4.30 30.00 1120 92.0 True x
4/7/2004 19:00    2.65 14 22.00 264 16.3 True x
4/14/2004 11:50    2.20 11 5.00 129 2.1 True x
4/22/2004 19:20    2.57 13 7.00 237 4.9 True x
5/5/2004 19:00    2.90 17 79.00 361 77.6 True x
5/12/2004 13:00    3.00 23 100.00 405 110.3 True x
5/19/2004 15:52    3.11 17 17.00 453 21.8 True x
5/19/2004 16:15    3.11 17 15.00 453 19.3 True x
5/19/2004 17:30    3.10 19 51.00 448 62.3 True x
5/26/2004 11:10    3.50 17 90.00 650 158.6 True x
6/2/2004 17:00    5.15 18 96.00 1700 441.2 True x
6/11/2004 18:00    4.95 24 156.00 1550 656.1 True x
6/19/2004 11:00    2.55 20 224.00 231 140.1 True x
6/30/2004 18:30    1.85 26 20.00 62.2 3.5 True x
7/8/2004 13:00    1.70 25 49.00 42.8 5.8 True x
7/14/2004 16:30    1.70 27 38.00 42.8 4.4 True x
7/23/2004 19:30    1.35 29 35.00 14.3 1.4 True x
7/28/2004 19:00    1.03 27 56.00 0.6 True x
8/4/2004 19:30    1.60 22 94.00 32.4 8.3 True x
8/12/2004 19:30    1.20 19 32.00 8.1 0.7 True x
8/19/2004 13:00    1.22 23 20.00 8.7 0.5 True x
8/26/2004 13:30    1.72 23 38.00 45.1 4.6 True x
8/29/2004 11:00    5.54 21 125.00 2000 679.6 True x
9/8/2004 18:00    1.60 21 66.00 32.4 5.8 True x
9/15/2004 15:30    1.35 26 18.00 14.3 0.7 True x
9/22/2004 13:00    1.30 24 11.00 11.8 0.4 True x
9/30/2004 16:00    1.12 22 23.00 5.9 0.4 True x
10/6/2004 17:15    1.22 18 21.00 8.7 0.5 True x
10/17/2004 15:30    2.25 11 29.00 141 11.2 True x
10/20/2004 14:44    1.89 11 58.00 68.3 10.8 True x
10/23/2004 15:08    1.89  44.00 68.3 8.2 True x
10/24/2004 15:00    2.10 15 93.00 107 27.1 True x
10/31/2004 14:30    1.78 14 124.00 52.5 17.6 True x
11/7/2004 15:00    3.85 12 124.00 846 284.9 True x
11/12/2004 16:00    2.42 139.00 189 71.0 True x
11/21/2004 11:00    3.15 10 123.00 471 157.1 True x
11/28/2004 14:00    6.35 137.00 2670 991.5 True x
12/5/2004 11:45    3.85 123.00 846 283.1 True x
12/12/2004 11:30    3.90 96.00 877 227.6 True x
12/19/2004 13:50    2.50 148.00 215 86.0 True x
1/2/2005 16:00    2.60 81.00 247 54.1 True x
1/9/2005 11:30    3.45 68.00 622 114.5 True x
1/15/2005 16:00    4.50 -1 58.00 1250 197.2 True x
1/22/2005 13:00    2.55 -1 55.00 231 34.5 True x
1/30/2005 12:30    2.30 58.00 154 24.2 True x
2/6/2005 12:00    2.45 89.00 199 48.3 True x
2/13/2005 15:30    2.77 113.00 308 94.7 True x
2/20/2005 15:00    3.00 35.00 405 38.6 True x
3/6/2005 13:00    2.45 110.00 199 59.2 True x
3/13/2005 12:00    2.15 33.00 117 10.6 True x
3/20/2005 16:00    2.08 71.00 102 19.7 True x
3/27/2005 12:00    3.20 96.00 495 129.0 True x
4/3/2005 17:30    2.90 13 82.00 361 80.3 True x
4/10/2005 11:50    2.35 16 76.00 168 34.8 True x
4/17/2005 15:00    2.35 18 85.00 168 38.6 True x
4/24/2005 17:40    3.40 10 71.00 595 114.5 True x
5/2/2005 15:00    2.30 74.00 154 31.2 True x
5/4/2005 14:34    2.21 12 47.00 131 16.6 True x
5/4/2005 14:51    2.21  47.00 131 17.0 True x
5/8/2005 14:50    2.50 22 70.00 215 41.1 True x
5/15/2005 10:50    2.10 14 50.00 107 14.6 True x
5/22/2005 16:00    2.10 21 40.00 107 11.7 True x
5/30/2005 14:50    2.02 22 46.00 90.7 11.4 True x
6/5/2005 17:15    1.95 27 9.00 78.1 2.1 True x
6/12/2005 18:00    1.95 26 13.00 78.1 2.9 True x
6/19/2005 13:00    1.67 24 11.00 39.5 1.2 True x
6/26/2005 13:50    1.35 24 25.00 14.3 1.0 True x
7/11/2005 18:00    0.88 28 9.00 1.7 0.0 True x
7/17/2005 19:00    0.75 31 16.00 0.4 0.0 True x
7/24/2005 19:00    1.45 31 9.00 20.3 0.5 True x
7/31/2005 18:00    1.25 28 99.00 9.7 2.6 True x
8/14/2005 13:00    1.95 24 14.00 78.1 3.0 True x
8/21/2005 14:00    1.35 31 9.00 14.3 0.4 True x
8/28/2005 14:50    1.00 28 18.00 3.5 0.2 True x
9/4/2005 16:30    0.85 29 8.00 1.3 0.0 True x
9/11/2005 18:00    0.73 28 10.00 0.2 0.0 True x
9/18/2005 15:00    0.68 24 140.00 0.0 True x
10/12/2005 16:00    0.80  7.00 0.8 0.0 True x
10/17/2005 17:30    0.73  13.00 0.2 0.0 True x
10/22/2005 10:30    0.78 13 11.00 0.6 0.0 True x
10/31/2005 16:00    0.80 14 15.00 0.8 0.0 True x
11/7/2005 15:00    0.85 13 12.00 1.3 0.0 True x
11/17/2005 16:00    0.87 22.00 1.5 0.1 True x
11/20/2005 14:00    0.85 28.00 1.3 0.1 True x
1/2/2006 13:50    1.45 8.00 20.3 0.5 True x
1/8/2006 14:00    1.50 7.00 23.9 0.5 True x
1/15/2006 14:50    2.40 15.00 183 7.7 True x
1/29/2006 16:00    2.25 10.00 141 4.1 True x
2/5/2006 13:30    2.20 90.00 129 31.6 True x
2/12/2006 15:30    1.85 14.00 62.2 2.4 True x
2/26/2006 16:15    2.20 36.00 129 12.9 True x
3/5/2006 16:00    1.65 44.00 37.4 4.5 True x
3/12/2006 12:00    3.05 12 31.00 426 35.9 True x
3/19/2006 16:30    2.60 104.00 247 70.0 True x
3/26/2006 17:30    2.15 102.00 117 32.4 True x
4/3/2006 18:00    2.70 11 17.00 282 13.3 True x
4/9/2006 17:30    2.25 14 100.00 141 38.2 True x
4/17/2006 18:00    5.00 14 158.00 1590 681.2 True x
4/24/2006 18:00    2.25 18 72.00 141 27.5 True x
5/1/2006 18:00    3.00 16 91.00 405 100.6 True x
5/7/2006 18:30    2.45 18 71.00 199 38.2 True x
5/21/2006 12:00    2.70 18 84.00 282 64.0 True x
5/30/2006 18:00    5.70 24 955.00 2130 5,492.4 True x
6/4/2006 14:00    2.85 23 60.00 340 55.7 True x
6/26/2006 15:00    2.05 25 101.00 96.5 26.4 True x
7/5/2006 18:00    1.60 27 14.00 32.4 1.3 True x
7/9/2006 19:00    1.35 29 31.00 14.3 1.2 True x
7/16/2006 19:00    1.96 33 8.00 79.8 1.8 True x
7/21/2006 17:00    1.68 31 7.00 40.5 0.8 True x
7/30/2006 19:00    1.35 33 8.00 14.3 0.3 True x
8/14/2006 19:00    1.65 26 12.00 37.4 1.2 True x
9/1/2006 16:00    1.15 26 28.00 6.7 0.5 True x
10/23/2006 14:00    3.35 133.00 569 205.2 True x
10/30/2006 16:00    2.95 13 144.00 382 149.3 True x
11/12/2006 14:30    4.35 54.00 1150 168.8 True x
11/19/2006 16:00    3.25 100.00 519 140.6 True x
11/26/2006 14:30    2.70 12 140.00 282 106.8 True x
12/7/2006 14:15    3.67 80.00 742 161.3 True x
12/11/2006 16:10    2.95 97.00 382 101.0 True x
12/23/2006 12:00    9.40 244.00 5970 3,937.1 True x
12/31/2006 15:30    3.30 10 73.00 543 108.4 True x
1/8/2007 16:00    4.50 10 39.00 1250 132.1 True x
1/14/2007 13:00    4.20 15 36.00 1060 104.5 True x
3/4/2007 16:30    3.70 113.00 759 233.0 True x
3/11/2007 13:00    4.10 85.00 998 229.6 True x
3/18/2007 14:35    3.35 15.00 569 23.4 True x
3/24/2007 19:00    11.19 12 454.00 8310 10,205.4 True x
4/1/2007 12:15    5.20 15 150.00 1740 706.5 True x
4/8/2007 16:00    2.77 12 58.00 308 48.3 True x
4/15/2007 14:00    3.56 14 102.00 682 188.1 True x
4/22/2007 15:00    2.55 21 40.00 231 25.4 True x
4/27/2007 11:30    8.25 12 194.00 4620 2,420.2 True x
5/6/2007 17:15    2.65 18 54.00 264 38.5 True x
5/13/2007 11:30    2.35 18 83.00 168 37.9 True x
5/20/2007 17:00    2.45 22 76.00 199 41.2 True x
5/29/2007 20:00    2.75 25 11.00 300 9.6 True x
6/10/2007 18:00    2.10 25 14.00 107 4.1 True x
6/19/2007 15:00    1.85 30 12.00 62.2 2.1 True x
6/24/2007 17:00    4.10 23 146.00 998 395.5 True x
7/1/2007 14:30    2.10  113.00 107 32.8 True x
7/8/2007 14:00    1.90  39.00 69.9 7.4 True x
7/17/2007 14:50    1.45  8.00 20.3 0.4 True x
7/22/2007 12:00    2.80  36.00 320 31.4 True x
7/28/2007 16:30    1.70  16.00 42.8 1.9 True x
8/6/2007 16:40    1.55  12.00 28 0.9 True x
8/17/2007 17:00    1.48  14.00 22.5 0.9 True x
8/20/2007 16:50    5.46  164.00 1940 860.3 True x
8/25/2007 12:00    12.65  59.00 10300 1,646.0 True x
9/3/2007 17:30    2.47  108.00 205 60.3 True x
9/9/2007 14:30    2.10  80.00 107 23.4 True x
9/17/2007 17:30    1.55  15.00 28 1.2 True x
9/25/2007 17:50    1.60  13.00 32.4 1.2 True x
10/1/2007 15:00    1.50  12.00 23.9 0.8 True x
10/7/2007 14:00    1.50  36.00 23.9 2.3 True x
10/14/2007 17:30    1.35  50.00 14.3 1.9 True x
10/21/2007 17:00    2.85  92.00 340 85.0 True x
10/28/2007 16:30    3.30  119.00 543 174.5 True x
11/5/2007 13:00    2.30 113.00 154 47.3 True x
11/11/2007 16:30    2.05 50.00 96.5 13.1 True x
11/18/2007 16:00    2.15 10 78.00 117 24.9 True x
11/25/2007 13:00    2.25 11 119.00 96.5 31.2 True x
12/2/2007 13:00    2.40 91.00 183 45.0 True x
12/12/2007 15:00    7.70 299.00 4020 3,250.7 True x
12/21/2007 15:30    3.30 92.00 543 135.7 True x
12/31/2007 15:00    3.15 16.00 471 21.5 True x
1/6/2008 14:00    4.00 192.00 940 487.7 True x
1/14/2008 12:00    4.45 39.00 1220 129.7 True x
2/6/2008 11:45    7.50 498.00 3810 5,124.0 True x
2/24/2008 16:00    2.40 27.00 183 13.4 True x
3/2/2008 15:00    2.45 20.00 199 10.9 True x
3/9/2008 15:00    2.65 17.00 264 12.4 True x
3/24/2008 15:30    2.90 94.00 361 91.8 True x
4/6/2008 16:30    2.80 13 79.00 320 69.1 True x
4/13/2008 16:00    3.45 96.00 622 161.8 True x
4/20/2008 12:00    2.60 17 70.00 247 46.9 True x
4/30/2008 16:00    2.33 15 50.00 163 22.2 True x
5/4/2008 15:30    2.35 17 65.00 168 29.7 True x
5/12/2008 10:45    6.60 18 217.00 2900 1,706.2 True x
5/19/2008 15:00    2.70  72.00 282 55.4 True x
5/26/2008 16:30    2.44 23 67.00 195 35.3 True x
6/2/2008 18:00    2.54 25 89.00 227 55.1 True x
6/8/2008 15:50    2.65 27 101.00 264 72.2 True x
6/16/2008 10:30    2.68 23 57.00 275 42.7 True x
6/23/2008 17:30    1.80 25 115.00 55.2 17.2 True x
6/29/2008 18:00    2.40 21 99.00 183 49.0 True x
7/6/2008 18:00    1.75 29 90.00 48.7 12.0 True x
7/13/2008 15:00    4.30 26 205.00 1120 622.0 True x
7/20/2008 14:30    2.92 29 73.00 369 73.2 True x
7/28/2008 16:00    1.70 31 19.00 42.8 2.2 True x
8/3/2008 16:35    1.75 29 11.00 48.7 1.5 True x
8/10/2008 14:25    1.65 28 23.00 37.4 2.4 True x
8/17/2008 17:00    1.20 30 23.00 8.1 0.5 True x
8/24/2008 16:30    1.16 30 18.00 0.3 True x
8/31/2008 16:00    1.00 30 29.00 3.5 0.3 True x
9/10/2008 11:00    2.10 20 37.00 107 10.8 True x
9/15/2008 11:45    17.94 21 76.00 19000 3,944.4 True x
9/22/2008 16:00    3.70 24 30.00 759 61.8 True x
9/28/2008 16:00    2.75 22 80.00 300 65.2 True x
10/8/2008 15:27    2.56 16 3.00 234 2.2 True x
10/13/2008 11:30    2.45 21 97.00 199 52.5 True x
10/19/2008 15:40    3.00 15 103.00 405 113.0 True x
10/20/2008 15:40    3.05 10 113.00 426 130.6 True x
11/2/2008 16:00    2.65 17 124.00 264 88.9 True x
11/10/2008 13:10    2.35 123.00 168 55.9 True x
11/17/2008 15:00    2.25 111.00 141 42.4 True x
11/24/2008 14:30    2.10 81.00 107 23.7 True x
12/3/2008 12:30    2.12 78.00 111 23.7 True x
12/28/2008 11:00    12.90 299.00 10700 8,648.4 True x
1/4/2009 12:00    3.15 13.00 471 17.2 True x
2/15/2009 13:15    4.10 58.00 998 156.4 True x
2/23/2009 15:00    2.75 71.00 300 57.9 True x
2/28/2009 17:00    5.65 284.00 2090 1,605.5 True x
3/9/2009 17:30    13.30 391.00 11300 11,943.6 True x
3/23/2009 16:30    2.80 11 20.00 320 17.3 True x
3/30/2009 15:30    4.20 12 99.00 1060 284.3 True x
4/6/2009 14:00    6.15 232.00 2500 1,567.5 True x
4/11/2009 15:00    3.35 11 18.00 569 28.7 True x
4/20/2009 14:00    4.55 13 73.00 1280 254.9 True x
4/27/2009 12:30    3.60 18 116.00 703 221.1 True x
5/10/2009 13:00    3.80 17 17.00 817 37.8 True x
5/17/2009 11:00    7.44 15 111.00 3750 1,125.6 True x
5/24/2009 10:30    3.05 22 34.00 426 39.5 True x
6/1/2009 16:00    2.50 23 42.00 215 24.9 True x
6/15/2009 14:15    2.75 23 94.00 300 76.8 True x
6/22/2009 10:15    8.50 24 463.00 4900 6,126.8 True x
6/27/2009 14:20    3.45 28 117.00 622 197.5 True x
7/6/2009 16:15    2.45 27 90.00 199 48.7 True x
7/15/2009 11:00    2.30 26 102.00 154 42.7 True x
7/19/2009 15:20    2.05 25 11.00 96.5 2.9 True x
7/27/2009 14:15    2.00 27 17.00 87 4.1 True x
8/3/2009 17:00    1.60 27 23.00 32.4 2.1 True x
8/10/2009 16:00    1.40 31 15.00 17.1 0.7 True x
8/17/2009 16:00    1.20 30 18.00 8.1 0.4 True x
8/31/2009 16:00    1.90 22 20.00 69.9 3.8 True x
9/7/2009 15:00    1.30 27 19.00 11.8 0.6 True x
9/21/2009 17:50    1.10 24 14.00 5.5 0.2 True x
10/6/2009 10:30    1.15 15 10.00 6.7 0.2 False x
10/13/2009 16:30    1.20 12 26.00 8.1 0.6 False x
10/19/2009 16:50    2.05 15 9.00 96 2.4 False x
10/24/2009 13:50    6.00 13 171.00 2370 1,099.3 False x
11/3/2009 11:30    4.67 12 39.00 1360 146.2 False x
11/8/2009 14:00    3.05 15 21.00 426 25.2 False x
11/16/2009 11:00    2.50 11 5.00 215 3.1 False x
11/23/2009 11:30    2.95 10 118.00 382 122.0 False x
11/29/2009 14:40    3.15 115.00 471 147.0 False x
12/16/2009 16:00    2.70 126.00 282 96.6 False x
12/21/2009 16:00    2.40 103.00 183 51.3 False x
1/24/2010 11:30    5.80 224.00 2210 1,339.9 False x
2/4/2010 13:30    7.40 110.00 3700 1,100.9 False x
3/3/2010 16:00    3.33 48.00 559 73.8 False x
3/14/2010 16:00    10.10 254.00 6880 4,731.1 False x
3/31/2010 16:30    2.41 18 6.00 186 3.1 False x
4/6/2010 18:00    2.53 20 52.00 224 31.6 False x
4/13/2010 16:00    2.81 20 80.00 324 70.2 False x
4/20/2010 12:00    2.33 25 74.00 163 32.7 False x
5/6/2010 16:00    2.37 19 8.00 174 4.1 False x
6/10/2010 16:00    3.28 24 161.00 533 232.3 False x
6/22/2010 18:00    7.97 20 52.00 4310 612.1 False x
6/28/2010 16:00    8.50 25 99.00 4900 1,311.5 False x
7/12/2010 14:00    2.10 30 27.00 107 8.0 False x
7/20/2010 15:30    2.30 30 9.00 154 3.8 False x
7/28/2010 14:50    1.48 35 16.00 22 1.0 False x
8/5/2010 11:00    1.50 30 13.00 24 0.9 False x
8/23/2010 16:00    1.80 30 33.00 55 5.0 False x
8/30/2010 16:00    0.75 31 27.00 0.39 0.0 False x
9/20/2010 16:00    0.85 26 15.00 1.3 0.1 False x
10/18/2010 10:15    0.70 13 8.00 0.0 False x
11/9/2010 16:00    0.95 14 7.00 2.7 0.1 False x
1/7/2011 15:00    2.85 16.00 340 15.5 False x
3/1/2011 16:00    6.55 16 186.00 2860 1,443.2 False x
3/8/2011 16:30    4.25 15 28.00 1090 84.7 False x
4/13/2011 15:30    2.65 18 18.00 264 12.9 False x
5/2/2011 15:00    2.35  21.00 168 9.6 False x
5/11/2011 14:00    2.50 15 7.00 215 4.2 False x
5/26/2011 16:00    11.95 13 322.00 9330 8,133.6 False x
6/5/2011 18:00    3.05 25 17.00 426 19.7 False x
6/16/2011 14:00    3.55 25 30.00 676 54.8 False x
6/27/2011 17:00    2.70 25 17.00 282 13.2 False x
6/29/2011 17:45    3.09 28 345.00 444 414.2 False x
7/8/2011 16:50    1.90 27 78.00 70 14.9 False x
7/18/2011 17:00    1.80 32 51.00 55 7.6 False x
7/25/2011 17:30    1.30 30 21.00 12 0.7 False x
8/6/2011 14:30    1.25 32 12.00 9.7 0.3 False x
8/22/2011 15:00    1.25 28 18.00 9.7 0.5 False x
9/3/2011 13:00    1.25 24 10.00 9.7 0.3 False x
9/24/2011 16:00    1.55 18 115.00 28 8.7 False x
10/15/2011 14:00    1.40 16 48.00 17 2.2 False x
10/24/2011 12:30    1.15 14 263.00 6.7 4.8 False x
11/23/2011 13:00    0.85 45.00 1.3 0.2 False x
11/30/2011 14:00    1.80 12.00 55 1.8 False x
12/6/2011 16:00    4.95 64.00 1550 271.4 False x
1/27/2012 13:00    3.05 10.00 468 12.7 False x
2/28/2012 16:00    4.10 10.00 1100 30.4 False x
3/8/2012 15:00    2.45 10 15.00 206 8.8 False x
3/16/2012 14:00    2.35 20 22.00 175 10.7 False x
3/23/2012 15:00    2.35 19 17.00 175 8.1 False x
4/4/2012 17:00    2.30 16 16.00 161 7.2 False x
4/11/2012 15:00    2.10 13 26.00 112 8.1 False x
4/27/2012 14:30    2.95 13 7.00 414 8.0 False x
5/3/2012 11:00    3.20 20 12.00 558 18.5 False x
5/8/2012 11:30    14.85 17 8,515.00 13400 308,089.1 False x
5/22/2012 13:00    3.75 19 106.00 901 259.1 False x
5/29/2012 12:30    2.60 26 112.00 258 78.3 False x
6/5/2012 17:00    2.40 22 112.00 190 57.6 False x
6/14/2012 17:00    2.05 25 99.00 102 27.3 False x
6/19/2012 11:00    2.65 28 25.00 278 19.0 False x
6/25/2012 15:00    1.70 26 29.00 47 3.8 False x
7/8/2012 13:00    1.15 31 40.00 7.1 0.8 False x
7/16/2012 17:00    1.10 34 12.00 5.6 0.2 False x
7/29/2012 15:00    0.70 31 18.00 0.32 0.0 False x
8/7/2012 15:30    0.60 32 18.00 0.06 0.0 False x
8/14/2012 16:00    0.95 26 15.00 2.5 0.1 False x
8/21/2012 15:30    0.85 26 13.00 1.3 0.0 False x
8/29/2012 16:00    1.35 30 16.00 16 0.7 False x
9/15/2012 17:00    2.40 24 7.00 190 4.1 False x
9/24/2012 15:00    0.70 18 10.00 0.32 0.0 False x
10/7/2012 14:00    0.90 18 13.00 1.8 0.1 False x
10/19/2012 14:00    0.85 14 12.00 1.3 0.0 False x
11/1/2012 16:00    1.45 10 4.00 23 0.3 False x
11/12/2012 15:00    2.10 11.00 112 3.5 False x
12/3/2012 15:00    1.15 92.00 7.1 1.8 False x
1/12/2013 14:00    2.00 439.00 92 109.3 False x
3/4/2013 13:00    2.35 211.00 175 100.0 False x
3/13/2013 16:00    5.25 166.00 1900 852.8 False x
3/28/2013 17:00    2.50 93.00 223 56.5 False x
4/3/2013 14:00    2.35 15.00 175 7.1 False x
4/9/2013 15:00    2.40 10 26.00 190 13.3 False x
4/22/2013 17:50    4.80 12 52.00 1560 221.7 False x
5/9/2013 12:00    2.85 22 44.00 365 44.0 False x
5/13/2013 14:00    2.30 15 172.00 161 74.9 False x
5/20/2013 16:00    2.30 26 32.00 161 14.1 False x
5/27/2013 16:30    6.80 15 198.00 3150 1,686.2 False x
6/18/2013 17:00    3.95 23 111.00 1010 303.7 False x
6/26/2013 16:00    3.90 24 12.00 985 32.7 False x
7/12/2013 10:30    3.40 23 45.00 694 84.7 False x
7/25/2013 13:00    1.85 24 21.00 67 3.8 False x
7/29/2013 15:00    1.55 24 30.00 31 2.6 False x
8/6/2013 17:00    1.80 25 488.00 60 79.1 False x
9/3/2013 16:00    1.55 27 11.00 31 1.0 False x
9/17/2013 17:00    1.25 23 23.00 11 0.7 False x
9/28/2013 14:30    1.00 22 37.00 3.2 0.3 False x
10/11/2013 14:00    1.35 20 30.00 16 1.3 False x
10/24/2013 16:00    1.40 36.00 19 1.9 False x

Data Set Parameters and Explanation

Help with downloading, csv files, printing, and more





Illinois State Water Survey

2204 Griffith Dr
Champaign, IL 61820-7463
217-244-5459
info@isws.illinois.edu

Terms of use. Email the Web Administrator with questions or comments.

© 2017 University of Illinois Board of Trustees. All rights reserved.
For permissions information, contact the Illinois State Water Survey.
Site Map